sensor_id;sensor_type;location;lat;lon;timestamp;temperature;humidity
56538;DHT22;42435;53.292;6.000;2023-03-01T00:01:08;0.60;77.00
56538;DHT22;42435;53.292;6.000;2023-03-01T00:03:34;0.50;76.90
56538;DHT22;42435;53.292;6.000;2023-03-01T00:06:00;0.50;77.00
56538;DHT22;42435;53.292;6.000;2023-03-01T00:08:26;0.50;77.10
56538;DHT22;42435;53.292;6.000;2023-03-01T00:11:07;0.50;77.10
56538;DHT22;42435;53.292;6.000;2023-03-01T00:13:33;0.40;77.10
56538;DHT22;42435;53.292;6.000;2023-03-01T00:16:01;0.40;77.00
56538;DHT22;42435;53.292;6.000;2023-03-01T00:18:26;0.40;76.90
56538;DHT22;42435;53.292;6.000;2023-03-01T00:20:53;0.40;77.10
56538;DHT22;42435;53.292;6.000;2023-03-01T00:23:20;0.40;77.20
56538;DHT22;42435;53.292;6.000;2023-03-01T00:25:47;0.40;77.20
56538;DHT22;42435;53.292;6.000;2023-03-01T00:28:12;0.30;77.30
56538;DHT22;42435;53.292;6.000;2023-03-01T00:30:38;0.30;77.40
56538;DHT22;42435;53.292;6.000;2023-03-01T00:33:04;0.30;77.40
56538;DHT22;42435;53.292;6.000;2023-03-01T00:35:29;0.20;77.20
56538;DHT22;42435;53.292;6.000;2023-03-01T00:37:59;0.20;77.10
56538;DHT22;42435;53.292;6.000;2023-03-01T00:40:25;0.20;77.10
56538;DHT22;42435;53.292;6.000;2023-03-01T00:42:51;0.20;77.10
56538;DHT22;42435;53.292;6.000;2023-03-01T00:45:17;0.20;77.10
56538;DHT22;42435;53.292;6.000;2023-03-01T00:47:43;0.20;77.20
56538;DHT22;42435;53.292;6.000;2023-03-01T00:50:09;0.20;77.20
56538;DHT22;42435;53.292;6.000;2023-03-01T00:52:35;0.20;77.10
56538;DHT22;42435;53.292;6.000;2023-03-01T00:55:02;0.10;77.00
56538;DHT22;42435;53.292;6.000;2023-03-01T00:57:28;0.10;77.20
56538;DHT22;42435;53.292;6.000;2023-03-01T00:59:53;0.10;77.30
56538;DHT22;42435;53.292;6.000;2023-03-01T01:02:19;0.10;77.40
56538;DHT22;42435;53.292;6.000;2023-03-01T01:04:46;0.10;77.50
56538;DHT22;42435;53.292;6.000;2023-03-01T01:07:12;0.10;77.60
56538;DHT22;42435;53.292;6.000;2023-03-01T01:09:37;0.10;77.50
56538;DHT22;42435;53.292;6.000;2023-03-01T01:12:03;0.10;77.50
56538;DHT22;42435;53.292;6.000;2023-03-01T01:14:29;0.10;77.40
56538;DHT22;42435;53.292;6.000;2023-03-01T01:16:55;0.00;77.40
56538;DHT22;42435;53.292;6.000;2023-03-01T01:19:20;0.00;77.40
56538;DHT22;42435;53.292;6.000;2023-03-01T01:21:47;0.00;77.40
56538;DHT22;42435;53.292;6.000;2023-03-01T01:24:14;0.10;77.60
56538;DHT22;42435;53.292;6.000;2023-03-01T01:26:41;0.00;77.70
56538;DHT22;42435;53.292;6.000;2023-03-01T01:29:07;0.10;77.90
56538;DHT22;42435;53.292;6.000;2023-03-01T01:31:34;0.10;78.00
56538;DHT22;42435;53.292;6.000;2023-03-01T01:34:01;0.10;78.20
56538;DHT22;42435;53.292;6.000;2023-03-01T01:36:27;0.10;78.30
56538;DHT22;42435;53.292;6.000;2023-03-01T01:38:53;0.10;78.40
56538;DHT22;42435;53.292;6.000;2023-03-01T01:41:20;0.10;78.50
56538;DHT22;42435;53.292;6.000;2023-03-01T01:46:39;0.20;79.00
56538;DHT22;42435;53.292;6.000;2023-03-01T01:49:17;0.20;78.70
56538;DHT22;42435;53.292;6.000;2023-03-01T01:51:47;0.30;78.80
56538;DHT22;42435;53.292;6.000;2023-03-01T01:57:05;0.30;78.80
56538;DHT22;42435;53.292;6.000;2023-03-01T01:59:33;0.30;78.70
56538;DHT22;42435;53.292;6.000;2023-03-01T02:02:03;0.40;78.80
56538;DHT22;42435;53.292;6.000;2023-03-01T02:04:30;0.40;78.90
56538;DHT22;42435;53.292;6.000;2023-03-01T02:07:17;0.40;79.10
56538;DHT22;42435;53.292;6.000;2023-03-01T02:09:47;0.40;79.40
56538;DHT22;42435;53.292;6.000;2023-03-01T02:12:14;0.50;79.30
56538;DHT22;42435;53.292;6.000;2023-03-01T02:14:40;0.50;79.40
56538;DHT22;42435;53.292;6.000;2023-03-01T02:17:06;0.60;79.40
56538;DHT22;42435;53.292;6.000;2023-03-01T02:19:47;0.60;79.50
56538;DHT22;42435;53.292;6.000;2023-03-01T02:22:31;0.60;79.70
56538;DHT22;42435;53.292;6.000;2023-03-01T02:25:11;0.60;79.80
56538;DHT22;42435;53.292;6.000;2023-03-01T02:27:53;0.70;79.80
56538;DHT22;42435;53.292;6.000;2023-03-01T02:30:22;0.70;79.80
56538;DHT22;42435;53.292;6.000;2023-03-01T02:32:50;0.70;79.80
56538;DHT22;42435;53.292;6.000;2023-03-01T02:35:17;0.70;79.80
56538;DHT22;42435;53.292;6.000;2023-03-01T02:37:45;0.70;79.90
56538;DHT22;42435;53.292;6.000;2023-03-01T02:40:17;0.70;80.00
56538;DHT22;42435;53.292;6.000;2023-03-01T02:42:51;0.80;80.10
56538;DHT22;42435;53.292;6.000;2023-03-01T02:45:17;0.80;80.00
56538;DHT22;42435;53.292;6.000;2023-03-01T02:47:43;0.90;79.90
56538;DHT22;42435;53.292;6.000;2023-03-01T02:53:10;0.90;80.20
56538;DHT22;42435;53.292;6.000;2023-03-01T02:55:36;0.90;80.10
56538;DHT22;42435;53.292;6.000;2023-03-01T02:58:03;0.90;80.00
56538;DHT22;42435;53.292;6.000;2023-03-01T03:00:34;0.90;80.10
56538;DHT22;42435;53.292;6.000;2023-03-01T03:03:01;1.00;80.10
56538;DHT22;42435;53.292;6.000;2023-03-01T03:05:29;0.90;80.10
56538;DHT22;42435;53.292;6.000;2023-03-01T03:07:55;0.90;80.20
56538;DHT22;42435;53.292;6.000;2023-03-01T03:10:27;0.90;80.30
56538;DHT22;42435;53.292;6.000;2023-03-01T03:12:57;0.90;80.40
56538;DHT22;42435;53.292;6.000;2023-03-01T03:15:23;0.90;80.30
56538;DHT22;42435;53.292;6.000;2023-03-01T03:17:50;0.90;80.30
56538;DHT22;42435;53.292;6.000;2023-03-01T03:20:17;0.90;80.40
56538;DHT22;42435;53.292;6.000;2023-03-01T03:22:48;0.90;80.50
56538;DHT22;42435;53.292;6.000;2023-03-01T03:25:15;0.90;80.50
56538;DHT22;42435;53.292;6.000;2023-03-01T03:27:42;0.90;80.50
56538;DHT22;42435;53.292;6.000;2023-03-01T03:30:13;0.90;80.60
56538;DHT22;42435;53.292;6.000;2023-03-01T03:32:40;0.90;80.60
56538;DHT22;42435;53.292;6.000;2023-03-01T03:35:07;0.80;80.70
56538;DHT22;42435;53.292;6.000;2023-03-01T03:37:38;0.80;80.70
56538;DHT22;42435;53.292;6.000;2023-03-01T03:40:23;0.80;80.80
56538;DHT22;42435;53.292;6.000;2023-03-01T03:42:48;0.80;80.80
56538;DHT22;42435;53.292;6.000;2023-03-01T03:45:15;0.80;80.90
56538;DHT22;42435;53.292;6.000;2023-03-01T03:47:41;0.70;80.90
56538;DHT22;42435;53.292;6.000;2023-03-01T03:50:09;0.70;80.90
56538;DHT22;42435;53.292;6.000;2023-03-01T03:52:46;0.70;81.00
56538;DHT22;42435;53.292;6.000;2023-03-01T03:55:13;0.70;81.00
56538;DHT22;42435;53.292;6.000;2023-03-01T03:57:42;0.70;81.00
56538;DHT22;42435;53.292;6.000;2023-03-01T04:00:11;0.60;81.10
56538;DHT22;42435;53.292;6.000;2023-03-01T04:02:41;0.60;81.10
56538;DHT22;42435;53.292;6.000;2023-03-01T04:05:07;0.60;81.00
56538;DHT22;42435;53.292;6.000;2023-03-01T04:07:34;0.50;81.10
56538;DHT22;42435;53.292;6.000;2023-03-01T04:10:01;0.50;81.10
56538;DHT22;42435;53.292;6.000;2023-03-01T04:12:27;0.50;81.00
56538;DHT22;42435;53.292;6.000;2023-03-01T04:14:52;0.50;80.90
56538;DHT22;42435;53.292;6.000;2023-03-01T04:17:18;0.50;80.90
56538;DHT22;42435;53.292;6.000;2023-03-01T04:19:44;0.50;81.00
56538;DHT22;42435;53.292;6.000;2023-03-01T04:22:14;0.50;80.70
56538;DHT22;42435;53.292;6.000;2023-03-01T04:24:43;0.50;80.40
56538;DHT22;42435;53.292;6.000;2023-03-01T04:27:12;0.40;80.40
56538;DHT22;42435;53.292;6.000;2023-03-01T04:29:37;0.40;80.50
56538;DHT22;42435;53.292;6.000;2023-03-01T04:32:03;0.40;80.60
56538;DHT22;42435;53.292;6.000;2023-03-01T04:34:29;0.40;80.60
56538;DHT22;42435;53.292;6.000;2023-03-01T04:36:55;0.40;80.50
56538;DHT22;42435;53.292;6.000;2023-03-01T04:39:20;0.40;80.40
56538;DHT22;42435;53.292;6.000;2023-03-01T04:41:47;0.40;80.40
56538;DHT22;42435;53.292;6.000;2023-03-01T04:44:12;0.40;80.30
56538;DHT22;42435;53.292;6.000;2023-03-01T04:46:38;0.40;80.30
56538;DHT22;42435;53.292;6.000;2023-03-01T04:49:04;0.40;80.20
56538;DHT22;42435;53.292;6.000;2023-03-01T04:51:31;0.30;80.20
56538;DHT22;42435;53.292;6.000;2023-03-01T04:53:58;0.30;80.20
56538;DHT22;42435;53.292;6.000;2023-03-01T04:56:23;0.30;80.30
56538;DHT22;42435;53.292;6.000;2023-03-01T04:58:49;0.30;80.20
56538;DHT22;42435;53.292;6.000;2023-03-01T05:01:18;0.20;80.20
56538;DHT22;42435;53.292;6.000;2023-03-01T05:03:47;0.20;80.20
56538;DHT22;42435;53.292;6.000;2023-03-01T05:06:13;0.20;80.30
56538;DHT22;42435;53.292;6.000;2023-03-01T05:08:41;0.20;80.40
56538;DHT22;42435;53.292;6.000;2023-03-01T05:11:07;0.10;80.50
56538;DHT22;42435;53.292;6.000;2023-03-01T05:13:34;0.20;80.50
56538;DHT22;42435;53.292;6.000;2023-03-01T05:16:01;0.20;80.60
56538;DHT22;42435;53.292;6.000;2023-03-01T05:18:32;0.20;80.70
56538;DHT22;42435;53.292;6.000;2023-03-01T05:21:16;0.20;80.80
56538;DHT22;42435;53.292;6.000;2023-03-01T05:23:42;0.20;81.00
56538;DHT22;42435;53.292;6.000;2023-03-01T05:26:08;0.20;80.90
56538;DHT22;42435;53.292;6.000;2023-03-01T05:28:34;0.20;80.90
56538;DHT22;42435;53.292;6.000;2023-03-01T05:31:00;0.20;80.90
56538;DHT22;42435;53.292;6.000;2023-03-01T05:33:27;0.20;80.90
56538;DHT22;42435;53.292;6.000;2023-03-01T05:35:53;0.20;81.00
56538;DHT22;42435;53.292;6.000;2023-03-01T05:38:20;0.20;81.00
56538;DHT22;42435;53.292;6.000;2023-03-01T05:40:47;0.20;81.00
56538;DHT22;42435;53.292;6.000;2023-03-01T05:43:15;0.20;81.10
56538;DHT22;42435;53.292;6.000;2023-03-01T05:45:41;0.20;81.00
56538;DHT22;42435;53.292;6.000;2023-03-01T05:48:08;0.20;81.10
56538;DHT22;42435;53.292;6.000;2023-03-01T05:50:37;0.20;81.10
56538;DHT22;42435;53.292;6.000;2023-03-01T05:53:14;0.10;81.10
56538;DHT22;42435;53.292;6.000;2023-03-01T05:55:40;0.10;81.10
56538;DHT22;42435;53.292;6.000;2023-03-01T05:58:12;0.10;81.00
56538;DHT22;42435;53.292;6.000;2023-03-01T06:00:39;0.10;81.00
56538;DHT22;42435;53.292;6.000;2023-03-01T06:03:05;0.10;81.00
56538;DHT22;42435;53.292;6.000;2023-03-01T06:05:31;0.00;81.10
56538;DHT22;42435;53.292;6.000;2023-03-01T06:07:59;0.00;81.10
56538;DHT22;42435;53.292;6.000;2023-03-01T06:10:25;0.00;81.10
56538;DHT22;42435;53.292;6.000;2023-03-01T06:12:50;0.00;81.10
56538;DHT22;42435;53.292;6.000;2023-03-01T06:15:16;0.00;81.10
56538;DHT22;42435;53.292;6.000;2023-03-01T06:17:43;0.00;81.10
56538;DHT22;42435;53.292;6.000;2023-03-01T06:20:20;0.00;81.00
56538;DHT22;42435;53.292;6.000;2023-03-01T06:22:48;0.00;80.90
56538;DHT22;42435;53.292;6.000;2023-03-01T06:25:18;-3276.70;80.60
56538;DHT22;42435;53.292;6.000;2023-03-01T06:27:44;-3276.70;80.30
56538;DHT22;42435;53.292;6.000;2023-03-01T06:30:12;-3276.70;80.30
56538;DHT22;42435;53.292;6.000;2023-03-01T06:32:39;-3276.60;80.20
56538;DHT22;42435;53.292;6.000;2023-03-01T06:35:09;-3276.50;80.20
56538;DHT22;42435;53.292;6.000;2023-03-01T06:37:35;-3276.50;80.20
56538;DHT22;42435;53.292;6.000;2023-03-01T06:40:06;-3276.50;80.20
56538;DHT22;42435;53.292;6.000;2023-03-01T06:42:36;-3276.40;80.20
56538;DHT22;42435;53.292;6.000;2023-03-01T06:45:04;-3276.40;80.30
56538;DHT22;42435;53.292;6.000;2023-03-01T06:47:30;-3276.40;80.30
56538;DHT22;42435;53.292;6.000;2023-03-01T06:49:55;-3276.40;80.30
56538;DHT22;42435;53.292;6.000;2023-03-01T06:52:21;-3276.40;80.20
56538;DHT22;42435;53.292;6.000;2023-03-01T06:54:47;-3276.40;80.20
56538;DHT22;42435;53.292;6.000;2023-03-01T06:57:12;-3276.40;80.20
56538;DHT22;42435;53.292;6.000;2023-03-01T06:59:38;-3276.30;80.20
56538;DHT22;42435;53.292;6.000;2023-03-01T07:02:03;-3276.40;80.20
56538;DHT22;42435;53.292;6.000;2023-03-01T07:04:29;-3276.40;80.10
56538;DHT22;42435;53.292;6.000;2023-03-01T07:06:56;-3276.40;80.10
56538;DHT22;42435;53.292;6.000;2023-03-01T07:09:24;-3276.40;80.00
56538;DHT22;42435;53.292;6.000;2023-03-01T07:11:50;-3276.40;79.90
56538;DHT22;42435;53.292;6.000;2023-03-01T07:14:16;-3276.40;79.90
56538;DHT22;42435;53.292;6.000;2023-03-01T07:16:41;-3276.40;79.90
56538;DHT22;42435;53.292;6.000;2023-03-01T07:19:07;-3276.40;79.90
56538;DHT22;42435;53.292;6.000;2023-03-01T07:21:32;-3276.50;79.90
56538;DHT22;42435;53.292;6.000;2023-03-01T07:23:58;-3276.50;79.90
56538;DHT22;42435;53.292;6.000;2023-03-01T07:26:24;-3276.50;79.90
56538;DHT22;42435;53.292;6.000;2023-03-01T07:28:49;-3276.50;79.80
56538;DHT22;42435;53.292;6.000;2023-03-01T07:31:15;-3276.50;79.80
56538;DHT22;42435;53.292;6.000;2023-03-01T07:33:40;-3276.60;79.80
56538;DHT22;42435;53.292;6.000;2023-03-01T07:36:06;-3276.50;79.80
56538;DHT22;42435;53.292;6.000;2023-03-01T07:38:32;-3276.60;79.90
56538;DHT22;42435;53.292;6.000;2023-03-01T07:40:59;-3276.60;80.00
56538;DHT22;42435;53.292;6.000;2023-03-01T07:43:27;-3276.60;80.10
56538;DHT22;42435;53.292;6.000;2023-03-01T07:45:52;-3276.70;80.10
56538;DHT22;42435;53.292;6.000;2023-03-01T07:48:18;0.00;80.00
56538;DHT22;42435;53.292;6.000;2023-03-01T07:50:43;0.00;80.00
56538;DHT22;42435;53.292;6.000;2023-03-01T07:53:09;0.00;79.90
56538;DHT22;42435;53.292;6.000;2023-03-01T07:55:36;0.00;79.90
56538;DHT22;42435;53.292;6.000;2023-03-01T07:58:01;0.10;79.90
56538;DHT22;42435;53.292;6.000;2023-03-01T08:00:27;0.10;79.90
56538;DHT22;42435;53.292;6.000;2023-03-01T08:02:52;0.20;79.90
56538;DHT22;42435;53.292;6.000;2023-03-01T08:05:18;0.30;79.80
56538;DHT22;42435;53.292;6.000;2023-03-01T08:07:43;0.40;79.80
56538;DHT22;42435;53.292;6.000;2023-03-01T08:10:10;0.40;79.80
56538;DHT22;42435;53.292;6.000;2023-03-01T08:12:36;0.60;79.80
56538;DHT22;42435;53.292;6.000;2023-03-01T08:15:01;0.70;79.80
56538;DHT22;42435;53.292;6.000;2023-03-01T08:17:27;0.80;79.80
56538;DHT22;42435;53.292;6.000;2023-03-01T08:19:52;0.90;79.80
56538;DHT22;42435;53.292;6.000;2023-03-01T08:22:18;1.20;79.80
56538;DHT22;42435;53.292;6.000;2023-03-01T08:24:43;1.30;79.70
56538;DHT22;42435;53.292;6.000;2023-03-01T08:27:09;1.50;79.70
56538;DHT22;42435;53.292;6.000;2023-03-01T08:29:36;1.70;79.70
56538;DHT22;42435;53.292;6.000;2023-03-01T08:32:01;2.00;79.60
56538;DHT22;42435;53.292;6.000;2023-03-01T08:34:27;2.20;79.50
56538;DHT22;42435;53.292;6.000;2023-03-01T08:36:52;2.50;79.20
56538;DHT22;42435;53.292;6.000;2023-03-01T08:39:19;2.70;79.10
56538;DHT22;42435;53.292;6.000;2023-03-01T08:41:46;3.00;79.20
56538;DHT22;42435;53.292;6.000;2023-03-01T08:44:13;3.20;79.20
56538;DHT22;42435;53.292;6.000;2023-03-01T08:46:41;3.50;79.00
56538;DHT22;42435;53.292;6.000;2023-03-01T08:49:18;3.80;78.70
56538;DHT22;42435;53.292;6.000;2023-03-01T08:51:45;4.10;78.30
56538;DHT22;42435;53.292;6.000;2023-03-01T08:54:16;4.30;77.90
56538;DHT22;42435;53.292;6.000;2023-03-01T08:56:42;4.60;77.70
56538;DHT22;42435;53.292;6.000;2023-03-01T08:59:12;4.80;77.50
56538;DHT22;42435;53.292;6.000;2023-03-01T09:01:38;5.00;77.20
56538;DHT22;42435;53.292;6.000;2023-03-01T09:04:05;5.20;77.00
56538;DHT22;42435;53.292;6.000;2023-03-01T09:06:32;5.40;76.70
56538;DHT22;42435;53.292;6.000;2023-03-01T09:08:58;5.60;76.60
56538;DHT22;42435;53.292;6.000;2023-03-01T09:11:24;5.90;76.30
56538;DHT22;42435;53.292;6.000;2023-03-01T09:13:50;6.10;75.60
56538;DHT22;42435;53.292;6.000;2023-03-01T09:16:18;6.40;74.90
56538;DHT22;42435;53.292;6.000;2023-03-01T09:18:44;6.60;74.30
56538;DHT22;42435;53.292;6.000;2023-03-01T09:21:13;6.80;73.80
56538;DHT22;42435;53.292;6.000;2023-03-01T09:23:42;7.00;73.40
56538;DHT22;42435;53.292;6.000;2023-03-01T09:26:10;7.10;72.50
56538;DHT22;42435;53.292;6.000;2023-03-01T09:28:37;7.20;72.20
56538;DHT22;42435;53.292;6.000;2023-03-01T09:31:03;7.40;72.50
56538;DHT22;42435;53.292;6.000;2023-03-01T09:33:29;7.70;72.30
56538;DHT22;42435;53.292;6.000;2023-03-01T09:36:00;7.90;72.10
56538;DHT22;42435;53.292;6.000;2023-03-01T09:38:26;8.10;71.50
56538;DHT22;42435;53.292;6.000;2023-03-01T09:40:52;8.40;70.80
56538;DHT22;42435;53.292;6.000;2023-03-01T09:43:35;8.60;70.10
56538;DHT22;42435;53.292;6.000;2023-03-01T09:46:07;8.80;69.50
56538;DHT22;42435;53.292;6.000;2023-03-01T09:48:46;8.90;68.90
56538;DHT22;42435;53.292;6.000;2023-03-01T09:51:18;9.10;67.90
56538;DHT22;42435;53.292;6.000;2023-03-01T09:53:44;9.20;67.70
56538;DHT22;42435;53.292;6.000;2023-03-01T09:56:23;9.40;67.60
56538;DHT22;42435;53.292;6.000;2023-03-01T09:59:14;9.50;66.70
56538;DHT22;42435;53.292;6.000;2023-03-01T10:04:48;9.80;66.00
56538;DHT22;42435;53.292;6.000;2023-03-01T10:07:40;9.90;66.20
56538;DHT22;42435;53.292;6.000;2023-03-01T10:10:17;10.10;64.30
56538;DHT22;42435;53.292;6.000;2023-03-01T10:12:48;10.30;64.30
56538;DHT22;42435;53.292;6.000;2023-03-01T10:15:16;10.50;64.10
56538;DHT22;42435;53.292;6.000;2023-03-01T10:17:55;10.60;63.70
56538;DHT22;42435;53.292;6.000;2023-03-01T10:20:29;10.70;62.80
56538;DHT22;42435;53.292;6.000;2023-03-01T10:22:56;10.90;62.20
56538;DHT22;42435;53.292;6.000;2023-03-01T10:28:44;11.20;60.70
56538;DHT22;42435;53.292;6.000;2023-03-01T10:31:22;11.30;59.60
56538;DHT22;42435;53.292;6.000;2023-03-01T10:33:53;11.20;59.80
56538;DHT22;42435;53.292;6.000;2023-03-01T10:36:21;11.20;60.10
56538;DHT22;42435;53.292;6.000;2023-03-01T10:38:53;11.30;59.70
56538;DHT22;42435;53.292;6.000;2023-03-01T10:41:20;11.30;59.40
56538;DHT22;42435;53.292;6.000;2023-03-01T10:43:56;11.30;59.10
56538;DHT22;42435;53.292;6.000;2023-03-01T10:46:34;11.30;58.60
56538;DHT22;42435;53.292;6.000;2023-03-01T10:49:19;11.30;58.60
56538;DHT22;42435;53.292;6.000;2023-03-01T10:51:48;11.30;58.30
56538;DHT22;42435;53.292;6.000;2023-03-01T10:54:22;11.30;58.80
56538;DHT22;42435;53.292;6.000;2023-03-01T10:56:52;11.30;58.90
56538;DHT22;42435;53.292;6.000;2023-03-01T10:59:29;11.30;59.20
56538;DHT22;42435;53.292;6.000;2023-03-01T11:02:26;11.40;58.80
56538;DHT22;42435;53.292;6.000;2023-03-01T11:05:02;11.40;58.90
56538;DHT22;42435;53.292;6.000;2023-03-01T11:07:28;11.50;58.40
56538;DHT22;42435;53.292;6.000;2023-03-01T11:09:54;11.40;58.40
56538;DHT22;42435;53.292;6.000;2023-03-01T11:12:21;11.30;58.30
56538;DHT22;42435;53.292;6.000;2023-03-01T11:14:56;11.30;58.50
56538;DHT22;42435;53.292;6.000;2023-03-01T11:17:30;11.30;58.40
56538;DHT22;42435;53.292;6.000;2023-03-01T11:22:50;11.30;58.50
56538;DHT22;42435;53.292;6.000;2023-03-01T11:25:20;11.40;58.70
56538;DHT22;42435;53.292;6.000;2023-03-01T11:27:48;11.40;58.50
56538;DHT22;42435;53.292;6.000;2023-03-01T11:30:38;11.40;58.70
56538;DHT22;42435;53.292;6.000;2023-03-01T11:33:11;11.40;58.40
56538;DHT22;42435;53.292;6.000;2023-03-01T11:35:45;11.40;58.50
56538;DHT22;42435;53.292;6.000;2023-03-01T11:38:25;11.50;58.20
56538;DHT22;42435;53.292;6.000;2023-03-01T11:41:02;11.40;58.00
56538;DHT22;42435;53.292;6.000;2023-03-01T11:43:51;11.50;57.40
56538;DHT22;42435;53.292;6.000;2023-03-01T11:46:41;11.60;55.80
56538;DHT22;42435;53.292;6.000;2023-03-01T11:52:17;11.50;55.30
56538;DHT22;42435;53.292;6.000;2023-03-01T12:05:48;11.40;55.70
56538;DHT22;42435;53.292;6.000;2023-03-01T12:08:42;11.60;55.20
56538;DHT22;42435;53.292;6.000;2023-03-01T12:11:30;11.40;53.90
56538;DHT22;42435;53.292;6.000;2023-03-01T12:14:20;11.50;54.30
56538;DHT22;42435;53.292;6.000;2023-03-01T12:20:57;11.50;52.90
56538;DHT22;42435;53.292;6.000;2023-03-01T12:28:52;11.40;51.40
56538;DHT22;42435;53.292;6.000;2023-03-01T12:31:49;11.30;51.20
56538;DHT22;42435;53.292;6.000;2023-03-01T12:43:44;11.40;52.20
56538;DHT22;42435;53.292;6.000;2023-03-01T12:46:31;11.40;52.40
56538;DHT22;42435;53.292;6.000;2023-03-01T12:49:17;11.50;52.10
56538;DHT22;42435;53.292;6.000;2023-03-01T12:51:53;11.60;50.80
56538;DHT22;42435;53.292;6.000;2023-03-01T12:54:27;11.50;50.80
56538;DHT22;42435;53.292;6.000;2023-03-01T12:56:54;11.50;50.90
56538;DHT22;42435;53.292;6.000;2023-03-01T12:59:42;11.40;51.30
56538;DHT22;42435;53.292;6.000;2023-03-01T13:02:33;11.40;51.20
56538;DHT22;42435;53.292;6.000;2023-03-01T13:05:34;11.50;51.70
56538;DHT22;42435;53.292;6.000;2023-03-01T13:10:46;11.40;51.90
56538;DHT22;42435;53.292;6.000;2023-03-01T13:13:20;11.50;52.00
56538;DHT22;42435;53.292;6.000;2023-03-01T13:15:45;11.60;52.50
56538;DHT22;42435;53.292;6.000;2023-03-01T13:30:58;11.80;51.60
56538;DHT22;42435;53.292;6.000;2023-03-01T13:35:52;11.80;52.10
56538;DHT22;42435;53.292;6.000;2023-03-01T13:38:47;11.80;51.80
56538;DHT22;42435;53.292;6.000;2023-03-01T13:41:16;11.70;51.70
56538;DHT22;42435;53.292;6.000;2023-03-01T13:43:44;11.70;51.90
56538;DHT22;42435;53.292;6.000;2023-03-01T13:46:20;11.70;52.00
56538;DHT22;42435;53.292;6.000;2023-03-01T13:48:50;11.70;51.50
56538;DHT22;42435;53.292;6.000;2023-03-01T13:51:23;11.70;51.40
56538;DHT22;42435;53.292;6.000;2023-03-01T13:53:51;11.70;51.20
56538;DHT22;42435;53.292;6.000;2023-03-01T13:56:21;11.60;51.10
56538;DHT22;42435;53.292;6.000;2023-03-01T14:01:24;11.50;51.10
56538;DHT22;42435;53.292;6.000;2023-03-01T14:03:50;11.50;51.40
56538;DHT22;42435;53.292;6.000;2023-03-01T14:06:21;11.50;50.90
56538;DHT22;42435;53.292;6.000;2023-03-01T14:08:48;11.50;50.80
56538;DHT22;42435;53.292;6.000;2023-03-01T14:19:36;11.10;51.50
56538;DHT22;42435;53.292;6.000;2023-03-01T14:22:22;11.10;51.80
56538;DHT22;42435;53.292;6.000;2023-03-01T14:24:57;11.10;52.00
56538;DHT22;42435;53.292;6.000;2023-03-01T14:27:26;11.20;51.70
56538;DHT22;42435;53.292;6.000;2023-03-01T14:30:00;11.10;51.30
56538;DHT22;42435;53.292;6.000;2023-03-01T14:32:29;11.10;50.90
56538;DHT22;42435;53.292;6.000;2023-03-01T14:34:56;11.10;51.00
56538;DHT22;42435;53.292;6.000;2023-03-01T14:37:29;11.10;50.90
56538;DHT22;42435;53.292;6.000;2023-03-01T14:39:56;11.00;51.20
56538;DHT22;42435;53.292;6.000;2023-03-01T14:42:24;11.00;51.30
56538;DHT22;42435;53.292;6.000;2023-03-01T14:44:54;11.00;51.10
56538;DHT22;42435;53.292;6.000;2023-03-01T14:47:27;11.00;50.70
56538;DHT22;42435;53.292;6.000;2023-03-01T14:50:01;11.00;50.60
56538;DHT22;42435;53.292;6.000;2023-03-01T14:52:42;10.90;50.70
56538;DHT22;42435;53.292;6.000;2023-03-01T14:55:19;10.90;50.70
56538;DHT22;42435;53.292;6.000;2023-03-01T14:57:48;10.80;50.70
56538;DHT22;42435;53.292;6.000;2023-03-01T15:00:26;10.70;50.80
56538;DHT22;42435;53.292;6.000;2023-03-01T15:02:54;10.70;50.90
56538;DHT22;42435;53.292;6.000;2023-03-01T15:05:26;10.60;51.20
56538;DHT22;42435;53.292;6.000;2023-03-01T15:07:54;10.60;51.50
56538;DHT22;42435;53.292;6.000;2023-03-01T15:10:30;10.70;51.60
56538;DHT22;42435;53.292;6.000;2023-03-01T15:13:09;10.70;51.20
56538;DHT22;42435;53.292;6.000;2023-03-01T15:15:38;10.60;51.40
56538;DHT22;42435;53.292;6.000;2023-03-01T15:20:46;10.50;52.00
56538;DHT22;42435;53.292;6.000;2023-03-01T15:23:25;10.60;52.20
56538;DHT22;42435;53.292;6.000;2023-03-01T15:25:53;10.60;52.30
56538;DHT22;42435;53.292;6.000;2023-03-01T15:28:34;10.50;52.40
56538;DHT22;42435;53.292;6.000;2023-03-01T15:31:21;10.40;52.40
56538;DHT22;42435;53.292;6.000;2023-03-01T15:33:47;10.40;53.00
56538;DHT22;42435;53.292;6.000;2023-03-01T15:36:41;10.20;53.90
56538;DHT22;42435;53.292;6.000;2023-03-01T15:42:12;9.90;56.90
56538;DHT22;42435;53.292;6.000;2023-03-01T15:44:41;9.70;57.40
56538;DHT22;42435;53.292;6.000;2023-03-01T15:47:28;9.60;58.50
56538;DHT22;42435;53.292;6.000;2023-03-01T15:49:56;9.50;59.70
56538;DHT22;42435;53.292;6.000;2023-03-01T15:52:35;9.30;60.30
56538;DHT22;42435;53.292;6.000;2023-03-01T15:55:14;9.20;61.60
56538;DHT22;42435;53.292;6.000;2023-03-01T15:57:40;9.00;61.90
56538;DHT22;42435;53.292;6.000;2023-03-01T16:00:09;9.00;62.20
56538;DHT22;42435;53.292;6.000;2023-03-01T16:02:39;8.90;62.90
56538;DHT22;42435;53.292;6.000;2023-03-01T16:05:05;8.90;63.40
56538;DHT22;42435;53.292;6.000;2023-03-01T16:07:31;8.80;63.90
56538;DHT22;42435;53.292;6.000;2023-03-01T16:09:57;8.80;64.10
56538;DHT22;42435;53.292;6.000;2023-03-01T16:12:22;8.80;64.60
56538;DHT22;42435;53.292;6.000;2023-03-01T16:14:49;8.70;65.20
56538;DHT22;42435;53.292;6.000;2023-03-01T16:17:15;8.50;65.60
56538;DHT22;42435;53.292;6.000;2023-03-01T16:19:41;8.50;65.80
56538;DHT22;42435;53.292;6.000;2023-03-01T16:22:08;8.40;66.10
56538;DHT22;42435;53.292;6.000;2023-03-01T16:24:34;8.30;66.60
56538;DHT22;42435;53.292;6.000;2023-03-01T16:27:01;8.20;66.80
56538;DHT22;42435;53.292;6.000;2023-03-01T16:29:27;8.20;67.10
56538;DHT22;42435;53.292;6.000;2023-03-01T16:31:54;8.10;67.30
56538;DHT22;42435;53.292;6.000;2023-03-01T16:34:20;8.00;67.70
56538;DHT22;42435;53.292;6.000;2023-03-01T16:36:47;7.90;67.90
56538;DHT22;42435;53.292;6.000;2023-03-01T16:39:12;7.80;68.40
56538;DHT22;42435;53.292;6.000;2023-03-01T16:41:38;7.70;68.50
56538;DHT22;42435;53.292;6.000;2023-03-01T16:44:04;7.60;69.00
56538;DHT22;42435;53.292;6.000;2023-03-01T16:46:30;7.50;69.20
56538;DHT22;42435;53.292;6.000;2023-03-01T16:48:56;7.40;69.40
56538;DHT22;42435;53.292;6.000;2023-03-01T16:51:22;7.30;69.70
56538;DHT22;42435;53.292;6.000;2023-03-01T16:53:49;7.20;70.00
56538;DHT22;42435;53.292;6.000;2023-03-01T16:56:16;7.20;70.10
56538;DHT22;42435;53.292;6.000;2023-03-01T16:58:42;7.00;70.30
56538;DHT22;42435;53.292;6.000;2023-03-01T17:01:11;7.00;70.40
56538;DHT22;42435;53.292;6.000;2023-03-01T17:03:37;6.90;70.70
56538;DHT22;42435;53.292;6.000;2023-03-01T17:06:05;6.90;70.90
56538;DHT22;42435;53.292;6.000;2023-03-01T17:08:31;6.80;71.00
56538;DHT22;42435;53.292;6.000;2023-03-01T17:11:08;6.70;71.20
56538;DHT22;42435;53.292;6.000;2023-03-01T17:13:35;6.60;71.70
56538;DHT22;42435;53.292;6.000;2023-03-01T17:16:03;6.50;71.60
56538;DHT22;42435;53.292;6.000;2023-03-01T17:18:29;6.40;71.70